Portada
METAR-TAF:

METAR-TAF

Aeropuertos :

Aeropuerto Internacional de Mashhad

Mashhad, Irán

latitud: 36-16N, longitud: 059-38E, altitud: 989 m

Observación

El informe se hizo hace 38 minutos, a las 04:30 UTC
Viento 4 kt del norte
Temperatura 8°C
Humedad 76%
Presión 1018 hPa
Visibilidad: 8000 m

METAR: OIMM 240430Z 35004KT 8000 NSC 08/04 Q1017 A3006

Hora: 09:38 (05:08 UTC)

Pronóstico

El informe se hizo hace 6 horas y 8 minutos, a las 23:00 UTC
Pronóstico válido del 24 a las 00 UTC al 25 a las 06 UTC
Viento 8 kt del oeste
Visibilidad: 8000 m
Temporalmente
del 24 a las 09 UTC al 24 a las 14 UTC
Viento 14 kt del sureste
Escasas nubes a una altura de 3500 ft, Cumulus congestus.
Nubes dispersas a una altura de 3500 ft
Nubes dispersas a una altura de 10000 ft

TAF: OIMM 232300Z 2400/2506 28008KT 8000 NSC TEMPO 2409/2414 14014KT FEW035TCU SCT035 SCT100

Observaciones y pronósticos meteorológicos de más de 4000 aeropuertos (mensajes METAR y TAF).

Los puntos amarillos y rojos representan las estaciones disponibles.

Ponga el ratón en el punto deseado para ver el nombre de la estación.

Haga clic para ver las observaciones y los pronósticos meteorológicos.

Para cambiar el mapa : haga clic en los botones verdes con una cruz de color negro para hacer un zoom, en el botón verde con un guión para alejar o en las flechas verdes para mapas adyacentes.


METAR-TAF: